sensor_id;sensor_type;location;lat;lon;timestamp;P1;durP1;ratioP1;P2;durP2;ratioP2
5195;SDS011;2617;51.006;12.436;2023-06-22T00:03:56;15.30;;;11.50;;
5195;SDS011;2617;51.006;12.436;2023-06-22T00:08:59;19.60;;;11.80;;
5195;SDS011;2617;51.006;12.436;2023-06-22T00:14:02;16.37;;;12.17;;
5195;SDS011;2617;51.006;12.436;2023-06-22T00:19:05;14.03;;;11.10;;
5195;SDS011;2617;51.006;12.436;2023-06-22T00:24:08;17.10;;;12.83;;
5195;SDS011;2617;51.006;12.436;2023-06-22T00:29:10;17.30;;;12.63;;
5195;SDS011;2617;51.006;12.436;2023-06-22T00:34:13;23.23;;;13.10;;
5195;SDS011;2617;51.006;12.436;2023-06-22T00:39:15;17.27;;;12.23;;
5195;SDS011;2617;51.006;12.436;2023-06-22T00:44:18;17.00;;;11.53;;
5195;SDS011;2617;51.006;12.436;2023-06-22T00:49:21;18.40;;;11.50;;
5195;SDS011;2617;51.006;12.436;2023-06-22T00:54:24;17.93;;;12.40;;
5195;SDS011;2617;51.006;12.436;2023-06-22T00:59:26;19.23;;;13.50;;
5195;SDS011;2617;51.006;12.436;2023-06-22T01:04:33;20.10;;;13.40;;
5195;SDS011;2617;51.006;12.436;2023-06-22T01:09:39;15.03;;;11.77;;
5195;SDS011;2617;51.006;12.436;2023-06-22T01:14:41;14.07;;;11.47;;
5195;SDS011;2617;51.006;12.436;2023-06-22T01:19:46;15.93;;;12.07;;
5195;SDS011;2617;51.006;12.436;2023-06-22T01:25:10;16.73;;;12.30;;
5195;SDS011;2617;51.006;12.436;2023-06-22T01:30:14;14.97;;;12.57;;
5195;SDS011;2617;51.006;12.436;2023-06-22T01:35:16;16.43;;;11.97;;
5195;SDS011;2617;51.006;12.436;2023-06-22T01:40:19;17.53;;;11.43;;
5195;SDS011;2617;51.006;12.436;2023-06-22T01:45:22;18.13;;;11.43;;
5195;SDS011;2617;51.006;12.436;2023-06-22T01:50:26;15.30;;;11.73;;
5195;SDS011;2617;51.006;12.436;2023-06-22T01:55:28;16.27;;;11.20;;
5195;SDS011;2617;51.006;12.436;2023-06-22T02:00:32;20.20;;;12.80;;
5195;SDS011;2617;51.006;12.436;2023-06-22T02:05:36;15.53;;;11.40;;
5195;SDS011;2617;51.006;12.436;2023-06-22T02:10:39;16.00;;;11.60;;
5195;SDS011;2617;51.006;12.436;2023-06-22T02:15:42;17.30;;;11.60;;
5195;SDS011;2617;51.006;12.436;2023-06-22T02:20:45;20.03;;;10.83;;
5195;SDS011;2617;51.006;12.436;2023-06-22T02:25:47;16.47;;;10.60;;
5195;SDS011;2617;51.006;12.436;2023-06-22T02:30:50;18.73;;;12.40;;
5195;SDS011;2617;51.006;12.436;2023-06-22T02:35:52;26.80;;;11.70;;
5195;SDS011;2617;51.006;12.436;2023-06-22T02:40:56;21.93;;;11.70;;
5195;SDS011;2617;51.006;12.436;2023-06-22T02:45:59;20.47;;;12.00;;
5195;SDS011;2617;51.006;12.436;2023-06-22T02:51:02;19.20;;;11.67;;
5195;SDS011;2617;51.006;12.436;2023-06-22T02:56:05;17.70;;;11.60;;
5195;SDS011;2617;51.006;12.436;2023-06-22T03:01:08;15.77;;;11.87;;
5195;SDS011;2617;51.006;12.436;2023-06-22T03:06:10;20.00;;;12.90;;
5195;SDS011;2617;51.006;12.436;2023-06-22T03:11:14;24.27;;;12.47;;
5195;SDS011;2617;51.006;12.436;2023-06-22T03:16:16;20.37;;;11.90;;
5195;SDS011;2617;51.006;12.436;2023-06-22T03:21:19;22.20;;;12.83;;
5195;SDS011;2617;51.006;12.436;2023-06-22T03:26:23;25.98;;;11.26;;
5195;SDS011;2617;51.006;12.436;2023-06-22T03:31:26;20.37;;;12.40;;
5195;SDS011;2617;51.006;12.436;2023-06-22T03:36:29;18.23;;;11.03;;
5195;SDS011;2617;51.006;12.436;2023-06-22T03:41:31;16.77;;;10.40;;
5195;SDS011;2617;51.006;12.436;2023-06-22T03:46:34;20.50;;;10.70;;
5195;SDS011;2617;51.006;12.436;2023-06-22T03:51:36;13.53;;;10.87;;
5195;SDS011;2617;51.006;12.436;2023-06-22T03:56:39;15.77;;;11.30;;
5195;SDS011;2617;51.006;12.436;2023-06-22T04:01:41;19.47;;;10.83;;
5195;SDS011;2617;51.006;12.436;2023-06-22T04:06:45;15.00;;;9.57;;
5195;SDS011;2617;51.006;12.436;2023-06-22T04:11:47;14.33;;;9.23;;
5195;SDS011;2617;51.006;12.436;2023-06-22T04:16:50;20.47;;;10.77;;
5195;SDS011;2617;51.006;12.436;2023-06-22T04:21:55;25.26;;;10.20;;
5195;SDS011;2617;51.006;12.436;2023-06-22T04:26:57;13.90;;;10.70;;
5195;SDS011;2617;51.006;12.436;2023-06-22T04:32:00;18.42;;;11.63;;
5195;SDS011;2617;51.006;12.436;2023-06-22T04:37:03;13.07;;;10.93;;
5195;SDS011;2617;51.006;12.436;2023-06-22T04:42:06;20.53;;;12.07;;
5195;SDS011;2617;51.006;12.436;2023-06-22T04:47:09;17.07;;;11.47;;
5195;SDS011;2617;51.006;12.436;2023-06-22T04:52:12;21.70;;;11.70;;
5195;SDS011;2617;51.006;12.436;2023-06-22T04:57:14;12.67;;;10.93;;
5195;SDS011;2617;51.006;12.436;2023-06-22T05:02:16;17.40;;;10.50;;
5195;SDS011;2617;51.006;12.436;2023-06-22T05:07:19;19.20;;;8.60;;
5195;SDS011;2617;51.006;12.436;2023-06-22T05:12:21;17.90;;;9.33;;
5195;SDS011;2617;51.006;12.436;2023-06-22T05:17:25;15.52;;;9.82;;
5195;SDS011;2617;51.006;12.436;2023-06-22T05:22:28;19.53;;;10.37;;
5195;SDS011;2617;51.006;12.436;2023-06-22T05:27:30;21.42;;;10.70;;
5195;SDS011;2617;51.006;12.436;2023-06-22T05:32:33;14.80;;;9.47;;
5195;SDS011;2617;51.006;12.436;2023-06-22T05:37:36;15.30;;;9.87;;
5195;SDS011;2617;51.006;12.436;2023-06-22T05:42:38;16.60;;;9.80;;
5195;SDS011;2617;51.006;12.436;2023-06-22T05:47:41;18.67;;;12.03;;
5195;SDS011;2617;51.006;12.436;2023-06-22T05:52:43;19.27;;;12.13;;
5195;SDS011;2617;51.006;12.436;2023-06-22T05:57:46;15.93;;;11.37;;
5195;SDS011;2617;51.006;12.436;2023-06-22T06:02:48;18.30;;;11.03;;
5195;SDS011;2617;51.006;12.436;2023-06-22T06:07:51;21.37;;;11.27;;
5195;SDS011;2617;51.006;12.436;2023-06-22T06:12:53;16.20;;;11.40;;
5195;SDS011;2617;51.006;12.436;2023-06-22T06:17:56;13.60;;;10.33;;
5195;SDS011;2617;51.006;12.436;2023-06-22T06:22:59;21.63;;;11.13;;
5195;SDS011;2617;51.006;12.436;2023-06-22T06:28:02;17.63;;;11.47;;
5195;SDS011;2617;51.006;12.436;2023-06-22T06:33:05;15.07;;;11.07;;
5195;SDS011;2617;51.006;12.436;2023-06-22T06:38:08;21.27;;;10.27;;
5195;SDS011;2617;51.006;12.436;2023-06-22T06:43:11;14.00;;;9.20;;
5195;SDS011;2617;51.006;12.436;2023-06-22T06:48:14;12.23;;;9.33;;
5195;SDS011;2617;51.006;12.436;2023-06-22T06:53:16;15.23;;;8.90;;
5195;SDS011;2617;51.006;12.436;2023-06-22T06:58:19;13.03;;;8.67;;
5195;SDS011;2617;51.006;12.436;2023-06-22T07:03:21;18.40;;;8.17;;
5195;SDS011;2617;51.006;12.436;2023-06-22T07:08:25;12.80;;;7.70;;
5195;SDS011;2617;51.006;12.436;2023-06-22T07:13:27;11.93;;;9.07;;
5195;SDS011;2617;51.006;12.436;2023-06-22T07:18:31;8.83;;;7.63;;
5195;SDS011;2617;51.006;12.436;2023-06-22T07:23:33;10.50;;;8.13;;
5195;SDS011;2617;51.006;12.436;2023-06-22T07:28:36;10.32;;;7.50;;
5195;SDS011;2617;51.006;12.436;2023-06-22T07:33:39;10.80;;;7.78;;
5195;SDS011;2617;51.006;12.436;2023-06-22T07:38:42;7.63;;;5.93;;
5195;SDS011;2617;51.006;12.436;2023-06-22T07:43:44;11.20;;;6.95;;
5195;SDS011;2617;51.006;12.436;2023-06-22T07:48:47;13.37;;;7.50;;
5195;SDS011;2617;51.006;12.436;2023-06-22T07:53:49;9.23;;;6.77;;
5195;SDS011;2617;51.006;12.436;2023-06-22T07:58:52;14.87;;;7.73;;
5195;SDS011;2617;51.006;12.436;2023-06-22T08:03:54;9.07;;;7.60;;
5195;SDS011;2617;51.006;12.436;2023-06-22T08:08:57;10.07;;;7.40;;
5195;SDS011;2617;51.006;12.436;2023-06-22T08:14:01;9.50;;;6.57;;
5195;SDS011;2617;51.006;12.436;2023-06-22T08:19:04;8.97;;;6.43;;
5195;SDS011;2617;51.006;12.436;2023-06-22T08:24:07;7.53;;;6.83;;
5195;SDS011;2617;51.006;12.436;2023-06-22T08:29:09;13.43;;;8.53;;
5195;SDS011;2617;51.006;12.436;2023-06-22T08:34:12;6.53;;;5.85;;
5195;SDS011;2617;51.006;12.436;2023-06-22T08:39:15;7.70;;;6.90;;
5195;SDS011;2617;51.006;12.436;2023-06-22T08:44:18;5.80;;;5.17;;
5195;SDS011;2617;51.006;12.436;2023-06-22T08:49:20;6.97;;;6.20;;
5195;SDS011;2617;51.006;12.436;2023-06-22T08:54:24;7.10;;;6.13;;
5195;SDS011;2617;51.006;12.436;2023-06-22T08:59:27;6.67;;;6.03;;
5195;SDS011;2617;51.006;12.436;2023-06-22T09:04:29;8.90;;;5.50;;
5195;SDS011;2617;51.006;12.436;2023-06-22T09:09:32;7.47;;;6.17;;
5195;SDS011;2617;51.006;12.436;2023-06-22T09:14:34;14.00;;;6.33;;
5195;SDS011;2617;51.006;12.436;2023-06-22T09:19:37;11.50;;;6.80;;
5195;SDS011;2617;51.006;12.436;2023-06-22T09:24:45;8.80;;;7.37;;
5195;SDS011;2617;51.006;12.436;2023-06-22T09:29:48;7.23;;;6.53;;
5195;SDS011;2617;51.006;12.436;2023-06-22T09:34:50;6.60;;;6.00;;
5195;SDS011;2617;51.006;12.436;2023-06-22T09:39:53;7.00;;;6.30;;
5195;SDS011;2617;51.006;12.436;2023-06-22T09:44:57;7.10;;;6.40;;
5195;SDS011;2617;51.006;12.436;2023-06-22T09:50:00;9.83;;;7.00;;
5195;SDS011;2617;51.006;12.436;2023-06-22T09:55:02;10.93;;;6.70;;
5195;SDS011;2617;51.006;12.436;2023-06-22T10:00:06;7.47;;;6.77;;
5195;SDS011;2617;51.006;12.436;2023-06-22T10:05:10;6.47;;;5.87;;
5195;SDS011;2617;51.006;12.436;2023-06-22T10:10:13;7.33;;;6.43;;
5195;SDS011;2617;51.006;12.436;2023-06-22T10:15:16;7.00;;;6.15;;
5195;SDS011;2617;51.006;12.436;2023-06-22T10:20:19;7.97;;;6.83;;
5195;SDS011;2617;51.006;12.436;2023-06-22T10:25:21;9.77;;;5.97;;
5195;SDS011;2617;51.006;12.436;2023-06-22T10:30:24;8.23;;;5.80;;
5195;SDS011;2617;51.006;12.436;2023-06-22T10:35:26;7.43;;;6.63;;
5195;SDS011;2617;51.006;12.436;2023-06-22T10:40:29;7.37;;;6.57;;
5195;SDS011;2617;51.006;12.436;2023-06-22T10:45:32;7.03;;;6.33;;
5195;SDS011;2617;51.006;12.436;2023-06-22T10:50:34;7.10;;;6.40;;
5195;SDS011;2617;51.006;12.436;2023-06-22T10:55:37;7.30;;;6.60;;
5195;SDS011;2617;51.006;12.436;2023-06-22T11:00:39;6.37;;;5.78;;
5195;SDS011;2617;51.006;12.436;2023-06-22T11:05:43;10.27;;;6.95;;
5195;SDS011;2617;51.006;12.436;2023-06-22T11:10:45;12.77;;;6.97;;
5195;SDS011;2617;51.006;12.436;2023-06-22T11:15:48;6.97;;;6.17;;
5195;SDS011;2617;51.006;12.436;2023-06-22T11:20:50;8.63;;;6.80;;
5195;SDS011;2617;51.006;12.436;2023-06-22T11:25:54;6.27;;;5.67;;
5195;SDS011;2617;51.006;12.436;2023-06-22T11:30:56;11.20;;;6.57;;
5195;SDS011;2617;51.006;12.436;2023-06-22T11:36:00;7.32;;;6.10;;
5195;SDS011;2617;51.006;12.436;2023-06-22T11:41:03;7.00;;;6.30;;
5195;SDS011;2617;51.006;12.436;2023-06-22T11:46:07;7.00;;;5.67;;
5195;SDS011;2617;51.006;12.436;2023-06-22T11:51:10;7.93;;;5.80;;
5195;SDS011;2617;51.006;12.436;2023-06-22T11:56:13;8.97;;;6.90;;
5195;SDS011;2617;51.006;12.436;2023-06-22T12:01:15;6.32;;;5.72;;
5195;SDS011;2617;51.006;12.436;2023-06-22T12:06:19;7.40;;;6.20;;
5195;SDS011;2617;51.006;12.436;2023-06-22T12:11:21;7.50;;;6.57;;
5195;SDS011;2617;51.006;12.436;2023-06-22T12:16:24;7.07;;;6.40;;
5195;SDS011;2617;51.006;12.436;2023-06-22T12:21:26;8.07;;;6.63;;
5195;SDS011;2617;51.006;12.436;2023-06-22T12:26:29;7.27;;;6.30;;
5195;SDS011;2617;51.006;12.436;2023-06-22T12:31:32;7.27;;;6.40;;
5195;SDS011;2617;51.006;12.436;2023-06-22T12:36:35;7.60;;;6.90;;
5195;SDS011;2617;51.006;12.436;2023-06-22T12:41:39;7.57;;;6.78;;
5195;SDS011;2617;51.006;12.436;2023-06-22T12:46:41;6.50;;;5.90;;
5195;SDS011;2617;51.006;12.436;2023-06-22T12:51:44;14.20;;;7.37;;
5195;SDS011;2617;51.006;12.436;2023-06-22T12:56:46;8.18;;;7.37;;
5195;SDS011;2617;51.006;12.436;2023-06-22T13:01:49;10.23;;;7.35;;
5195;SDS011;2617;51.006;12.436;2023-06-22T13:06:52;13.33;;;6.87;;
5195;SDS011;2617;51.006;12.436;2023-06-22T13:11:54;8.40;;;7.50;;
5195;SDS011;2617;51.006;12.436;2023-06-22T13:16:57;9.13;;;7.57;;
5195;SDS011;2617;51.006;12.436;2023-06-22T13:21:59;9.93;;;6.83;;
5195;SDS011;2617;51.006;12.436;2023-06-22T13:27:02;13.50;;;6.73;;
5195;SDS011;2617;51.006;12.436;2023-06-22T13:32:05;6.63;;;6.03;;
5195;SDS011;2617;51.006;12.436;2023-06-22T13:37:08;7.00;;;6.30;;
5195;SDS011;2617;51.006;12.436;2023-06-22T13:42:10;8.25;;;7.40;;
5195;SDS011;2617;51.006;12.436;2023-06-22T13:47:14;6.80;;;6.18;;
5195;SDS011;2617;51.006;12.436;2023-06-22T13:52:16;10.25;;;7.00;;
5195;SDS011;2617;51.006;12.436;2023-06-22T13:57:20;7.77;;;6.47;;
5195;SDS011;2617;51.006;12.436;2023-06-22T14:02:22;8.93;;;6.50;;
5195;SDS011;2617;51.006;12.436;2023-06-22T14:07:24;9.40;;;6.50;;
5195;SDS011;2617;51.006;12.436;2023-06-22T14:12:28;7.80;;;6.60;;
5195;SDS011;2617;51.006;12.436;2023-06-22T14:17:31;9.63;;;6.70;;
5195;SDS011;2617;51.006;12.436;2023-06-22T14:22:34;9.33;;;5.97;;
5195;SDS011;2617;51.006;12.436;2023-06-22T14:27:37;6.47;;;5.87;;
5195;SDS011;2617;51.006;12.436;2023-06-22T14:32:39;7.35;;;6.65;;
5195;SDS011;2617;51.006;12.436;2023-06-22T14:37:42;7.80;;;7.00;;
5195;SDS011;2617;51.006;12.436;2023-06-22T14:42:44;7.53;;;6.30;;
5195;SDS011;2617;51.006;12.436;2023-06-22T14:47:47;7.35;;;6.53;;
5195;SDS011;2617;51.006;12.436;2023-06-22T14:52:49;7.72;;;6.75;;
5195;SDS011;2617;51.006;12.436;2023-06-22T14:57:52;13.50;;;7.20;;
5195;SDS011;2617;51.006;12.436;2023-06-22T15:02:55;7.53;;;6.63;;
5195;SDS011;2617;51.006;12.436;2023-06-22T15:07:58;9.80;;;6.40;;
5195;SDS011;2617;51.006;12.436;2023-06-22T15:13:00;7.93;;;6.47;;
5195;SDS011;2617;51.006;12.436;2023-06-22T15:18:03;7.10;;;6.17;;
5195;SDS011;2617;51.006;12.436;2023-06-22T15:23:06;6.53;;;5.90;;
5195;SDS011;2617;51.006;12.436;2023-06-22T15:28:08;7.43;;;5.97;;
5195;SDS011;2617;51.006;12.436;2023-06-22T15:33:11;7.47;;;6.40;;
5195;SDS011;2617;51.006;12.436;2023-06-22T15:38:13;6.85;;;6.25;;
5195;SDS011;2617;51.006;12.436;2023-06-22T15:43:16;8.13;;;6.87;;
5195;SDS011;2617;51.006;12.436;2023-06-22T15:48:19;8.25;;;6.12;;
5195;SDS011;2617;51.006;12.436;2023-06-22T15:53:23;6.90;;;6.20;;
5195;SDS011;2617;51.006;12.436;2023-06-22T15:58:27;8.47;;;6.50;;
5195;SDS011;2617;51.006;12.436;2023-06-22T16:03:29;7.70;;;6.90;;
5195;SDS011;2617;51.006;12.436;2023-06-22T16:08:33;10.80;;;6.70;;
5195;SDS011;2617;51.006;12.436;2023-06-22T16:13:36;7.27;;;5.87;;
5195;SDS011;2617;51.006;12.436;2023-06-22T16:18:39;7.00;;;5.93;;
5195;SDS011;2617;51.006;12.436;2023-06-22T16:23:41;9.43;;;6.70;;
5195;SDS011;2617;51.006;12.436;2023-06-22T16:28:44;7.57;;;6.53;;
5195;SDS011;2617;51.006;12.436;2023-06-22T16:33:46;6.93;;;6.20;;
5195;SDS011;2617;51.006;12.436;2023-06-22T16:38:50;10.35;;;7.10;;
5195;SDS011;2617;51.006;12.436;2023-06-22T16:43:53;8.37;;;5.97;;
5195;SDS011;2617;51.006;12.436;2023-06-22T16:48:56;9.60;;;6.53;;
5195;SDS011;2617;51.006;12.436;2023-06-22T16:53:58;13.60;;;6.03;;
5195;SDS011;2617;51.006;12.436;2023-06-22T16:59:01;7.80;;;6.10;;
5195;SDS011;2617;51.006;12.436;2023-06-22T17:04:06;7.10;;;5.95;;
5195;SDS011;2617;51.006;12.436;2023-06-22T17:09:11;8.50;;;6.93;;
5195;SDS011;2617;51.006;12.436;2023-06-22T17:14:14;7.80;;;5.72;;
5195;SDS011;2617;51.006;12.436;2023-06-22T17:19:17;7.65;;;6.57;;
5195;SDS011;2617;51.006;12.436;2023-06-22T17:24:21;8.75;;;6.75;;
5195;SDS011;2617;51.006;12.436;2023-06-22T17:29:28;10.60;;;6.67;;
5195;SDS011;2617;51.006;12.436;2023-06-22T17:34:34;11.17;;;6.80;;
5195;SDS011;2617;51.006;12.436;2023-06-22T17:39:36;7.63;;;6.63;;
5195;SDS011;2617;51.006;12.436;2023-06-22T17:44:39;8.27;;;6.97;;
5195;SDS011;2617;51.006;12.436;2023-06-22T17:49:41;7.55;;;6.78;;
5195;SDS011;2617;51.006;12.436;2023-06-22T17:54:44;12.55;;;7.05;;
5195;SDS011;2617;51.006;12.436;2023-06-22T17:59:48;10.30;;;6.62;;
5195;SDS011;2617;51.006;12.436;2023-06-22T18:04:50;7.95;;;6.60;;
5195;SDS011;2617;51.006;12.436;2023-06-22T18:09:53;10.65;;;6.50;;
5195;SDS011;2617;51.006;12.436;2023-06-22T18:14:56;7.20;;;6.40;;
5195;SDS011;2617;51.006;12.436;2023-06-22T18:19:58;9.83;;;6.90;;
5195;SDS011;2617;51.006;12.436;2023-06-22T18:25:01;8.17;;;6.57;;
5195;SDS011;2617;51.006;12.436;2023-06-22T18:30:04;8.07;;;7.20;;
5195;SDS011;2617;51.006;12.436;2023-06-22T18:35:07;8.10;;;6.37;;
5195;SDS011;2617;51.006;12.436;2023-06-22T18:40:10;9.80;;;6.85;;
5195;SDS011;2617;51.006;12.436;2023-06-22T18:55:39;7.67;;;6.90;;
5195;SDS011;2617;51.006;12.436;2023-06-22T19:00:40;11.57;;;6.60;;
5195;SDS011;2617;51.006;12.436;2023-06-22T19:05:43;10.07;;;6.97;;
5195;SDS011;2617;51.006;12.436;2023-06-22T19:10:45;15.70;;;6.93;;
5195;SDS011;2617;51.006;12.436;2023-06-22T19:15:50;6.97;;;6.30;;
5195;SDS011;2617;51.006;12.436;2023-06-22T19:20:59;8.90;;;6.77;;
5195;SDS011;2617;51.006;12.436;2023-06-22T19:26:02;7.93;;;6.53;;
5195;SDS011;2617;51.006;12.436;2023-06-22T19:31:07;8.67;;;7.10;;
5195;SDS011;2617;51.006;12.436;2023-06-22T19:36:11;9.43;;;7.80;;
5195;SDS011;2617;51.006;12.436;2023-06-22T19:41:13;8.43;;;7.63;;
5195;SDS011;2617;51.006;12.436;2023-06-22T19:46:17;11.88;;;8.30;;
5195;SDS011;2617;51.006;12.436;2023-06-22T19:51:20;9.80;;;8.37;;
5195;SDS011;2617;51.006;12.436;2023-06-22T19:56:22;11.93;;;8.77;;
5195;SDS011;2617;51.006;12.436;2023-06-22T20:01:24;17.07;;;10.10;;
5195;SDS011;2617;51.006;12.436;2023-06-22T20:06:27;15.33;;;10.30;;
5195;SDS011;2617;51.006;12.436;2023-06-22T20:11:31;15.67;;;10.17;;
5195;SDS011;2617;51.006;12.436;2023-06-22T20:16:37;13.43;;;8.57;;
5195;SDS011;2617;51.006;12.436;2023-06-22T20:21:37;10.82;;;7.32;;
5195;SDS011;2617;51.006;12.436;2023-06-22T20:26:44;9.40;;;6.83;;
5195;SDS011;2617;51.006;12.436;2023-06-22T20:31:47;17.10;;;7.37;;
5195;SDS011;2617;51.006;12.436;2023-06-22T20:36:49;12.13;;;8.02;;
5195;SDS011;2617;51.006;12.436;2023-06-22T20:41:52;14.63;;;9.10;;
5195;SDS011;2617;51.006;12.436;2023-06-22T20:46:55;12.20;;;8.43;;
5195;SDS011;2617;51.006;12.436;2023-06-22T20:51:57;17.07;;;8.43;;
5195;SDS011;2617;51.006;12.436;2023-06-22T20:57:00;14.17;;;8.40;;
5195;SDS011;2617;51.006;12.436;2023-06-22T21:02:03;18.13;;;9.70;;
5195;SDS011;2617;51.006;12.436;2023-06-22T21:07:06;16.27;;;7.90;;
5195;SDS011;2617;51.006;12.436;2023-06-22T21:12:08;13.70;;;8.10;;
5195;SDS011;2617;51.006;12.436;2023-06-22T21:17:11;13.00;;;7.90;;
5195;SDS011;2617;51.006;12.436;2023-06-22T21:22:14;11.40;;;7.73;;
5195;SDS011;2617;51.006;12.436;2023-06-22T21:27:16;8.60;;;7.50;;
5195;SDS011;2617;51.006;12.436;2023-06-22T21:32:20;8.80;;;7.90;;
5195;SDS011;2617;51.006;12.436;2023-06-22T21:37:23;8.70;;;6.90;;
5195;SDS011;2617;51.006;12.436;2023-06-22T21:42:26;10.63;;;7.90;;
5195;SDS011;2617;51.006;12.436;2023-06-22T21:47:28;7.33;;;6.53;;
5195;SDS011;2617;51.006;12.436;2023-06-22T21:52:32;7.63;;;5.63;;
5195;SDS011;2617;51.006;12.436;2023-06-22T21:57:35;11.73;;;5.60;;
5195;SDS011;2617;51.006;12.436;2023-06-22T22:02:38;9.10;;;5.40;;
5195;SDS011;2617;51.006;12.436;2023-06-22T22:07:49;6.67;;;5.17;;
5195;SDS011;2617;51.006;12.436;2023-06-22T22:13:01;7.70;;;5.00;;
5195;SDS011;2617;51.006;12.436;2023-06-22T22:23:15;7.17;;;5.50;;
5195;SDS011;2617;51.006;12.436;2023-06-22T22:28:18;10.67;;;6.27;;
5195;SDS011;2617;51.006;12.436;2023-06-22T22:33:22;6.63;;;5.63;;
5195;SDS011;2617;51.006;12.436;2023-06-22T22:38:24;11.23;;;7.32;;
5195;SDS011;2617;51.006;12.436;2023-06-22T22:43:27;10.07;;;6.70;;
5195;SDS011;2617;51.006;12.436;2023-06-22T22:48:30;9.87;;;7.00;;
5195;SDS011;2617;51.006;12.436;2023-06-22T22:53:32;6.87;;;5.57;;
5195;SDS011;2617;51.006;12.436;2023-06-22T22:58:35;11.63;;;5.80;;
5195;SDS011;2617;51.006;12.436;2023-06-22T23:03:39;5.20;;;4.20;;
5195;SDS011;2617;51.006;12.436;2023-06-22T23:08:43;6.40;;;3.80;;
5195;SDS011;2617;51.006;12.436;2023-06-22T23:13:49;3.60;;;3.08;;
5195;SDS011;2617;51.006;12.436;2023-06-22T23:19:08;4.70;;;3.60;;
5195;SDS011;2617;51.006;12.436;2023-06-22T23:24:10;6.27;;;4.40;;
5195;SDS011;2617;51.006;12.436;2023-06-22T23:29:13;9.33;;;5.97;;
5195;SDS011;2617;51.006;12.436;2023-06-22T23:34:15;10.97;;;6.30;;
5195;SDS011;2617;51.006;12.436;2023-06-22T23:39:18;9.80;;;7.50;;
5195;SDS011;2617;51.006;12.436;2023-06-22T23:44:38;9.87;;;8.17;;
5195;SDS011;2617;51.006;12.436;2023-06-22T23:50:13;11.83;;;9.03;;
5195;SDS011;2617;51.006;12.436;2023-06-22T23:55:16;10.50;;;7.80;;
